createdAt,value
2023-02-25T00:02:04.540Z,99818.97
2023-02-25T00:05:07.292Z,99818.22
2023-02-25T00:08:09.392Z,99823.47
2023-02-25T00:11:11.964Z,99822.72
2023-02-25T00:14:13.522Z,99832.59
2023-02-25T00:17:15.220Z,99838.03
2023-02-25T00:20:18.590Z,99847.84
2023-02-25T00:23:20.667Z,99848.00
2023-02-25T00:26:23.683Z,99843.84
2023-02-25T00:29:25.504Z,99859.91
2023-02-25T00:32:27.548Z,99846.88
2023-02-25T00:35:29.495Z,99862.78
2023-02-25T00:38:31.015Z,99858.53
2023-02-25T00:41:32.851Z,99855.91
2023-02-25T00:44:34.459Z,99863.78
2023-02-25T00:47:36.339Z,99866.41
2023-02-25T00:50:39.737Z,99868.19
2023-02-25T00:53:41.859Z,99868.19
2023-02-25T00:56:43.621Z,99869.06
2023-02-25T00:59:45.187Z,99881.34
2023-02-25T01:02:46.813Z,99874.31
2023-02-25T01:05:51.748Z,99878.72
2023-02-25T01:08:54.328Z,99883.03
2023-02-25T01:11:55.887Z,99891.88
2023-02-25T01:14:57.570Z,99897.06
2023-02-25T01:17:59.089Z,99886.53
2023-02-25T01:21:00.830Z,99894.41
2023-02-25T01:24:10.022Z,99898.78
2023-02-25T01:27:11.927Z,99897.06
2023-02-25T01:30:13.789Z,99901.41
2023-02-25T01:33:15.397Z,99901.41
2023-02-25T01:36:17.362Z,99910.97
2023-02-25T01:39:20.761Z,99916.19
2023-02-25T01:42:22.379Z,99910.06
2023-02-25T01:45:33.033Z,99921.59
2023-02-25T01:48:40.340Z,99926.09
2023-02-25T01:51:46.069Z,99923.63
2023-02-25T01:54:53.621Z,99931.66
2023-02-25T01:57:58.071Z,99931.75
2023-02-25T02:01:00.510Z,99934.47
2023-02-25T02:04:04.662Z,99951.09
2023-02-25T02:07:07.134Z,99950.28
2023-02-25T02:10:09.398Z,99943.28
2023-02-25T02:13:11.006Z,99951.28
2023-02-25T02:16:15.157Z,99951.34
2023-02-25T02:19:22.736Z,99963.72
2023-02-25T02:23:03.884Z,99955.91
2023-02-25T02:26:46.071Z,99955.13
2023-02-25T02:30:08.662Z,99962.19
2023-02-25T02:33:22.334Z,99969.22
2023-02-25T02:36:50.255Z,99968.38
2023-02-25T02:39:54.473Z,99980.59
2023-02-25T02:43:18.996Z,99983.91
2023-02-25T02:46:25.407Z,99985.69
2023-02-25T02:49:36.686Z,99990.94
2023-02-25T02:52:43.463Z,99989.25
2023-02-25T02:55:50.958Z,99995.38
2023-02-25T02:59:05.862Z,99992.75
2023-02-25T03:02:13.202Z,100006.81
2023-02-25T03:05:17.268Z,99998.16
2023-02-25T03:08:27.474Z,100000.72
2023-02-25T03:11:29.229Z,100013.00
2023-02-25T03:14:31.062Z,100009.53
2023-02-25T03:17:42.328Z,100007.84
2023-02-25T03:20:49.517Z,100015.72
2023-02-25T03:23:51.877Z,100024.53
2023-02-25T03:26:53.617Z,100025.47
2023-02-25T03:30:06.358Z,100029.03
2023-02-25T03:33:16.432Z,100052.03
2023-02-25T03:37:06.030Z,100045.28
2023-02-25T03:40:12.973Z,100045.50
2023-02-25T03:43:21.492Z,100053.44
2023-02-25T03:46:25.770Z,100050.13
2023-02-25T03:49:34.765Z,100065.97
2023-02-25T03:52:36.656Z,100066.13
2023-02-25T03:55:38.257Z,100078.47
2023-02-25T03:58:41.968Z,100081.28
2023-02-25T04:01:46.743Z,100083.09
2023-02-25T04:04:48.301Z,100092.78
2023-02-25T04:07:50.059Z,100093.78
2023-02-25T04:10:52.317Z,100092.94
2023-02-25T04:13:54.625Z,100100.81
2023-02-25T04:16:56.149Z,100103.44
2023-02-25T04:19:57.830Z,100100.81
2023-02-25T04:23:00.283Z,100109.56
2023-02-25T04:26:02.156Z,100113.88
2023-02-25T04:29:04.229Z,100114.75
2023-02-25T04:32:06.050Z,100114.75
2023-02-25T04:35:11.807Z,100117.38
2023-02-25T04:38:14.192Z,100100.81
2023-02-25T04:41:15.780Z,100108.84
2023-02-25T04:44:17.379Z,100119.50
2023-02-25T04:47:19.352Z,100116.19
2023-02-25T04:50:21.275Z,100124.13
2023-02-25T04:53:22.855Z,100129.47
2023-02-25T04:56:24.755Z,100127.75
2023-02-25T04:59:26.738Z,100129.59
2023-02-25T05:02:28.484Z,100132.31
2023-02-25T05:05:30.068Z,100135.94
2023-02-25T05:08:32.174Z,100144.72
2023-02-25T05:11:33.799Z,100142.03
2023-02-25T05:14:37.273Z,100148.22
2023-02-25T05:17:38.947Z,100146.44
2023-02-25T05:20:42.979Z,100154.31
2023-02-25T05:23:46.634Z,100152.56
2023-02-25T05:26:48.212Z,100156.00
2023-02-25T05:29:51.617Z,100154.31
2023-02-25T05:32:53.425Z,100160.56
2023-02-25T05:35:54.958Z,100157.94
2023-02-25T05:39:02.966Z,100151.84
2023-02-25T05:42:04.814Z,100152.69
2023-02-25T05:45:09.829Z,100156.09
2023-02-25T05:48:11.386Z,100164.84
2023-02-25T05:51:23.397Z,100159.59
2023-02-25T05:54:25.663Z,100168.25
2023-02-25T05:57:27.174Z,100170.88
2023-02-25T06:00:28.723Z,100191.03
2023-02-25T06:03:30.615Z,100186.78
2023-02-25T06:06:32.935Z,100186.91
2023-02-25T06:09:37.541Z,100187.06
2023-02-25T06:12:39.134Z,100192.59
2023-02-25T06:15:42.354Z,100192.72
2023-02-25T06:18:44.354Z,100195.47
2023-02-25T06:21:45.908Z,100204.28
2023-02-25T06:24:47.517Z,100200.81
2023-02-25T06:27:49.158Z,100199.09
2023-02-25T06:30:50.728Z,100206.91
2023-02-25T06:33:55.079Z,100208.59
2023-02-25T06:36:56.692Z,100223.47
2023-02-25T06:39:58.451Z,100226.03
2023-02-25T06:42:59.994Z,100233.75
2023-02-25T06:46:05.906Z,100240.66
2023-02-25T06:49:07.473Z,100249.53
2023-02-25T06:52:09.001Z,100262.00
2023-02-25T06:55:10.687Z,100265.22
2023-02-25T06:58:14.180Z,100275.66
2023-02-25T07:01:17.676Z,100277.19
2023-02-25T07:04:20.064Z,100295.22
2023-02-25T07:07:22.354Z,100298.38
2023-02-25T07:10:24.258Z,100305.81
2023-02-25T07:13:25.798Z,100311.44
2023-02-25T07:16:29.957Z,100307.50
2023-02-25T07:19:31.827Z,100315.56
2023-02-25T07:22:33.420Z,100329.91
2023-02-25T07:25:34.952Z,100324.06
2023-02-25T07:28:37.625Z,100330.31
2023-02-25T07:31:39.708Z,100325.06
2023-02-25T07:34:41.506Z,100329.50
2023-02-25T07:37:43.087Z,100333.09
2023-02-25T07:40:44.647Z,100342.75
2023-02-25T07:43:46.502Z,100344.59
2023-02-25T07:46:48.002Z,100351.53
2023-02-25T07:49:49.536Z,100349.78
2023-02-25T07:52:51.590Z,100358.50
2023-02-25T07:55:53.157Z,100368.16
2023-02-25T07:58:54.742Z,100366.41
2023-02-25T08:01:56.331Z,100369.81
2023-02-25T08:04:57.895Z,100360.84
2023-02-25T08:07:59.428Z,100368.53
2023-02-25T08:11:08.298Z,100367.34
2023-02-25T08:14:10.727Z,100379.44
2023-02-25T08:17:13.220Z,100385.31
2023-02-25T08:20:14.768Z,100391.16
2023-02-25T08:23:16.328Z,100390.94
2023-02-25T08:26:18.515Z,100395.00
2023-02-25T08:29:20.091Z,100400.16
2023-02-25T08:32:23.071Z,100400.00
2023-02-25T08:35:25.677Z,100405.34
2023-02-25T08:38:28.601Z,100406.25
2023-02-25T08:41:30.497Z,100416.75
2023-02-25T08:44:32.032Z,100424.59
2023-02-25T08:47:33.686Z,100428.00
2023-02-25T08:50:35.362Z,100432.50
2023-02-25T08:53:39.111Z,100448.19
2023-02-25T08:56:47.422Z,100461.41
2023-02-25T08:59:49.059Z,100461.34
2023-02-25T09:02:50.637Z,100468.38
2023-02-25T09:05:53.534Z,100466.78
2023-02-25T09:08:56.835Z,100474.69
2023-02-25T09:11:58.439Z,100485.19
2023-02-25T09:15:00.060Z,100497.47
2023-02-25T09:18:01.610Z,100507.31
2023-02-25T09:21:04.535Z,100501.38
2023-02-25T09:24:07.782Z,100531.28
2023-02-25T09:27:10.619Z,100524.22
2023-02-25T09:30:13.012Z,100540.72
2023-02-25T09:33:15.017Z,100553.69
2023-02-25T09:36:19.041Z,100556.28
2023-02-25T09:39:20.579Z,100565.81
2023-02-25T09:42:24.964Z,100570.69
2023-02-25T09:45:26.782Z,100577.97
2023-02-25T09:48:34.046Z,100574.81
2023-02-25T09:51:46.006Z,100580.94
2023-02-25T09:54:52.795Z,100586.53
2023-02-25T09:58:28.307Z,100592.84
2023-02-25T10:01:39.385Z,100591.78
2023-02-25T10:04:52.816Z,100597.47
2023-02-25T10:08:23.509Z,100604.44
2023-02-25T10:11:37.592Z,100613.31
2023-02-25T10:14:42.135Z,100610.88
2023-02-25T10:17:55.568Z,100627.47
2023-02-25T10:21:16.091Z,100620.97
2023-02-25T10:24:30.722Z,100623.81
2023-02-25T10:27:46.597Z,100619.03
2023-02-25T10:31:08.195Z,100636.50
2023-02-25T10:34:32.799Z,100633.53
2023-02-25T10:37:38.195Z,100639.47
2023-02-25T10:40:40.929Z,100638.91
2023-02-25T10:43:43.903Z,100650.63
2023-02-25T10:46:57.965Z,100655.41
2023-02-25T10:50:17.630Z,100662.63
2023-02-25T10:53:19.181Z,100658.72
2023-02-25T10:56:22.036Z,100665.53
2023-02-25T10:59:31.709Z,100669.97
2023-02-25T11:02:41.640Z,100676.53
2023-02-25T11:05:44.944Z,100686.50
2023-02-25T11:08:46.667Z,100680.22
2023-02-25T11:11:58.942Z,100683.97
2023-02-25T11:15:19.538Z,100698.41
2023-02-25T11:18:31.392Z,100698.06
2023-02-25T11:21:39.054Z,100694.00
2023-02-25T11:24:42.903Z,100707.41
2023-02-25T11:27:54.139Z,100708.25
2023-02-25T11:31:06.138Z,100711.47
2023-02-25T11:34:30.712Z,100705.00
2023-02-25T11:37:46.447Z,100710.91
2023-02-25T11:40:48.714Z,100709.19
2023-02-25T11:43:50.588Z,100708.97
2023-02-25T11:46:57.245Z,100728.91
2023-02-25T11:50:10.228Z,100729.97
2023-02-25T11:53:33.607Z,100725.84
2023-02-25T11:56:48.643Z,100731.31
2023-02-25T12:00:25.755Z,100732.47
2023-02-25T12:03:48.312Z,100749.41
2023-02-25T12:07:08.417Z,100744.13
2023-02-25T12:10:25.221Z,100752.69
2023-02-25T12:13:46.770Z,100746.66
2023-02-25T12:17:28.851Z,100752.84
2023-02-25T12:20:40.729Z,100745.44
2023-02-25T12:24:06.821Z,100747.66
2023-02-25T12:27:51.116Z,100762.41
2023-02-25T12:31:23.812Z,100750.41
2023-02-25T12:34:56.420Z,100761.28
2023-02-25T12:38:19.316Z,100767.53
2023-02-25T12:41:39.409Z,100767.66
2023-02-25T12:45:10.013Z,100777.22
2023-02-25T12:48:59.318Z,100760.97
2023-02-25T12:52:06.773Z,100780.75
2023-02-25T12:55:36.304Z,100775.59
2023-02-25T12:58:46.570Z,100782.59
2023-02-25T13:02:09.867Z,100775.94
2023-02-25T13:05:48.985Z,100781.72
2023-02-25T13:09:12.165Z,100787.91
2023-02-25T13:12:25.900Z,100791.41
2023-02-25T13:15:35.314Z,100810.75
2023-02-25T13:18:58.326Z,100795.06
2023-02-25T13:22:43.701Z,100811.66
2023-02-25T13:26:18.953Z,100809.31
2023-02-25T13:29:32.067Z,100813.13
2023-02-25T13:33:04.412Z,100809.81
2023-02-25T13:36:26.986Z,100821.22
2023-02-25T13:39:54.314Z,100822.97
2023-02-25T13:43:14.703Z,100813.41
2023-02-25T13:46:22.273Z,100828.34
2023-02-25T13:49:51.568Z,100826.59
2023-02-25T13:53:02.041Z,100829.16
2023-02-25T13:56:18.503Z,100829.81
2023-02-25T13:59:54.263Z,100844.78
2023-02-25T14:03:34.193Z,100841.41
2023-02-25T14:07:00.307Z,100839.84
2023-02-25T14:10:12.813Z,100849.59
2023-02-25T14:13:42.436Z,100853.94
2023-02-25T14:17:01.027Z,100857.56
2023-02-25T14:20:02.802Z,100870.84
2023-02-25T14:23:33.380Z,100871.88
2023-02-25T14:26:47.045Z,100879.03
2023-02-25T14:30:19.610Z,100877.31
2023-02-25T14:33:32.919Z,100881.63
2023-02-25T14:37:07.418Z,100892.19
2023-02-25T14:40:21.105Z,100892.22
2023-02-25T14:43:41.229Z,100901.16
2023-02-25T14:46:48.070Z,100903.88
2023-02-25T14:50:14.670Z,100901.28
2023-02-25T14:53:29.686Z,100905.03
2023-02-25T14:56:48.896Z,100905.09
2023-02-25T15:00:15.258Z,100921.03
2023-02-25T15:03:19.514Z,100927.31
2023-02-25T15:06:44.761Z,100926.44
2023-02-25T15:10:08.165Z,100931.63
2023-02-25T15:13:48.522Z,100926.47
2023-02-25T15:17:01.854Z,100934.53
2023-02-25T15:20:42.194Z,100936.50
2023-02-25T15:23:51.194Z,100933.03
2023-02-25T15:26:53.925Z,100945.41
2023-02-25T15:29:59.621Z,100947.38
2023-02-25T15:33:32.044Z,100946.69
2023-02-25T15:36:42.192Z,100957.34
2023-02-25T15:39:43.669Z,100948.78
2023-02-25T15:42:57.289Z,100949.69
2023-02-25T15:46:07.916Z,100945.41
2023-02-25T15:49:15.493Z,100944.63
2023-02-25T15:52:52.829Z,100945.50
2023-02-25T15:56:03.469Z,100942.00
2023-02-25T15:59:04.995Z,100942.88
2023-02-25T16:02:34.847Z,100947.22
2023-02-25T16:05:37.973Z,100949.88
2023-02-25T16:08:54.878Z,100956.84
2023-02-25T16:12:07.253Z,100963.91
2023-02-25T16:15:20.367Z,100964.81
2023-02-25T16:18:45.369Z,100978.97
2023-02-25T16:21:53.194Z,100971.28
2023-02-25T16:24:57.104Z,100980.09
2023-02-25T16:28:05.707Z,100977.50
2023-02-25T16:31:42.153Z,100988.06
2023-02-25T16:35:17.749Z,100995.13
2023-02-25T16:38:35.243Z,101023.34
2023-02-25T16:41:39.490Z,101045.47
2023-02-25T16:44:44.762Z,101041.50
2023-02-25T16:47:55.340Z,101036.84
2023-02-25T16:50:57.084Z,101038.25
2023-02-25T16:54:06.419Z,101052.91
2023-02-25T16:57:20.183Z,101052.53
2023-02-25T17:00:23.141Z,101055.59
2023-02-25T17:03:33.018Z,101060.44
2023-02-25T17:06:34.846Z,101071.31
2023-02-25T17:09:42.338Z,101068.13
2023-02-25T17:12:45.892Z,101070.97
2023-02-25T17:15:47.673Z,101065.78
2023-02-25T17:18:53.619Z,101079.94
2023-02-25T17:21:58.731Z,101101.06
2023-02-25T17:25:02.145Z,101122.19
2023-02-25T17:28:04.994Z,101134.66
2023-02-25T17:31:15.555Z,101154.25
2023-02-25T17:34:28.879Z,101150.38
2023-02-25T17:37:31.499Z,101133.41
2023-02-25T17:40:33.316Z,101146.03
2023-02-25T17:43:38.937Z,101163.78
2023-02-25T17:46:44.554Z,101148.13
2023-02-25T17:49:46.796Z,101155.34
2023-02-25T17:52:49.317Z,101153.66
2023-02-25T17:55:50.864Z,101159.03
2023-02-25T17:59:01.383Z,101157.28
2023-02-25T18:02:23.614Z,101154.59
2023-02-25T18:05:26.030Z,101167.66
2023-02-25T18:08:51.353Z,101172.91
2023-02-25T18:11:55.086Z,101175.53
2023-02-25T18:14:59.557Z,101181.72
2023-02-25T18:18:04.226Z,101190.53
2023-02-25T18:21:08.731Z,101189.66
2023-02-25T18:24:26.537Z,101192.28
2023-02-25T18:27:32.961Z,101192.28
2023-02-25T18:30:34.599Z,101194.09
2023-02-25T18:33:36.465Z,101205.53
2023-02-25T18:36:38.387Z,101202.09
2023-02-25T18:39:40.020Z,101206.53
2023-02-25T18:42:41.519Z,101205.72
2023-02-25T18:45:43.234Z,101204.91
2023-02-25T18:48:44.793Z,101208.44
2023-02-25T18:51:48.863Z,101213.69
2023-02-25T18:54:50.479Z,101211.94
2023-02-25T18:57:52.371Z,101206.75
2023-02-25T19:00:57.066Z,101200.66
2023-02-25T19:04:01.488Z,101209.44
2023-02-25T19:07:10.842Z,101216.50
2023-02-25T19:10:30.226Z,101220.03
2023-02-25T19:13:38.467Z,101215.69
2023-02-25T19:16:40.010Z,101214.88
2023-02-25T19:19:46.587Z,101212.38
2023-02-25T19:22:50.624Z,101212.50
2023-02-25T19:25:59.456Z,101216.09
2023-02-25T19:29:01.059Z,101217.94
2023-02-25T19:32:02.737Z,101225.03
2023-02-25T19:35:04.795Z,101222.50
2023-02-25T19:38:08.532Z,101225.19
2023-02-25T19:41:13.232Z,101227.00
2023-02-25T19:44:14.757Z,101230.56
2023-02-25T19:47:16.301Z,101235.91
2023-02-25T19:50:20.241Z,101257.81
2023-02-25T19:53:21.961Z,101273.69
2023-02-25T19:56:23.769Z,101272.13
2023-02-25T19:59:25.662Z,101274.94
2023-02-25T20:02:27.242Z,101281.19
2023-02-25T20:05:28.887Z,101282.16
2023-02-25T20:08:30.452Z,101276.09
2023-02-25T20:11:32.442Z,101276.97
2023-02-25T20:14:34.394Z,101281.34
2023-02-25T20:17:37.408Z,101286.63
2023-02-25T20:20:42.262Z,101287.50
2023-02-25T20:23:43.782Z,101287.50
2023-02-25T20:26:45.356Z,101279.69
2023-02-25T20:29:47.625Z,101291.00
2023-02-25T20:32:49.250Z,101301.34
2023-02-25T20:35:50.903Z,101298.72
2023-02-25T20:39:12.732Z,101302.16
2023-02-25T20:42:20.656Z,101304.69
2023-02-25T20:45:22.512Z,101309.94
2023-02-25T20:48:30.195Z,101302.03
2023-02-25T20:51:32.509Z,101306.41
2023-02-25T20:54:34.042Z,101313.38
2023-02-25T20:57:35.766Z,101317.78
2023-02-25T21:00:38.375Z,101321.38
2023-02-25T21:03:39.902Z,101321.50
2023-02-25T21:06:41.447Z,101325.94
2023-02-25T21:09:43.054Z,101334.66
2023-02-25T21:12:44.661Z,101334.75
2023-02-25T21:15:46.218Z,101328.63
2023-02-25T21:18:48.675Z,101337.41
2023-02-25T21:21:50.865Z,101344.47
2023-02-25T21:24:52.433Z,101346.28
2023-02-25T21:27:53.996Z,101341.97
2023-02-25T21:31:04.339Z,101349.00
2023-02-25T21:34:06.381Z,101349.91
2023-02-25T21:37:07.937Z,101355.19
2023-02-25T21:40:10.391Z,101357.84
2023-02-25T21:43:11.990Z,101362.28
2023-02-25T21:46:16.345Z,101365.81
2023-02-25T21:49:18.265Z,101368.44
2023-02-25T21:52:19.872Z,101368.44
2023-02-25T21:55:21.462Z,101371.97
2023-02-25T21:58:23.942Z,101372.94
2023-02-25T22:01:37.656Z,101364.25
2023-02-25T22:04:39.344Z,101366.91
2023-02-25T22:07:40.932Z,101376.53
2023-02-25T22:10:42.544Z,101382.63
2023-02-25T22:13:44.170Z,101381.81
2023-02-25T22:16:45.752Z,101387.06
2023-02-25T22:19:47.281Z,101396.72
2023-02-25T22:22:49.107Z,101398.47
2023-02-25T22:25:50.642Z,101397.66
2023-02-25T22:29:03.719Z,101407.25
2023-02-25T22:32:05.400Z,101400.28
2023-02-25T22:35:07.808Z,101411.63
2023-02-25T22:38:12.006Z,101414.25
2023-02-25T22:41:18.490Z,101419.47
2023-02-25T22:44:20.062Z,101420.31
2023-02-25T22:47:21.684Z,101429.06
2023-02-25T22:50:23.251Z,101430.81
2023-02-25T22:53:24.855Z,101437.81
2023-02-25T22:56:27.684Z,101435.19
2023-02-25T22:59:29.345Z,101443.03
2023-02-25T23:02:30.905Z,101451.81
2023-02-25T23:05:32.666Z,101453.63
2023-02-25T23:08:35.201Z,101462.31
2023-02-25T23:11:36.836Z,101469.31
2023-02-25T23:14:38.396Z,101465.84
2023-02-25T23:17:39.940Z,101470.84
2023-02-25T23:20:41.910Z,101476.06
2023-02-25T23:23:43.870Z,101478.69
2023-02-25T23:26:47.874Z,101488.34
2023-02-25T23:29:49.566Z,101485.84
2023-02-25T23:32:51.146Z,101489.38
2023-02-25T23:35:52.699Z,101490.34
2023-02-25T23:39:00.788Z,101500.00
2023-02-25T23:42:02.589Z,101500.94
2023-02-25T23:45:05.831Z,101507.09
2023-02-25T23:48:07.885Z,101510.66
2023-02-25T23:51:09.564Z,101517.63
2023-02-25T23:54:14.873Z,101532.50
2023-02-25T23:57:16.501Z,101528.19
